Dessau, Texas
Current Conditions -  °F | °C
As of 2:55 AM on Monday 22 Dec 2014 (Local Time) from KEDC Reporting Station
Overcast Overcast  
Wind Chill: 55°   Ceiling: 900
Heat Index: 55°   Visibility: 7mi
Dew Point: 54°   Wind: 10mph
Humidity: 94%   Direction: 200°SSW
Pressure: 29.78"   Gusts: NA
Location:  30.3795°N, 97.676°W
Report Text: KEDC 220855Z AUTO 20009KT 7SM BKN009 OVC027 13/12 A2978 RMK AO2
Loading
Personal Weather Stations






























Interactive Weather Map New forecast layout! Learn more

10-Day Weather Forecast

Advertisements
Track Severe Weather on mobile